Williamsport, Ohio
Current Conditions -  °F | °C
As of 12:14 AM on Tuesday 23 Dec 2014 (Local Time) from KRZT Reporting Station
Clear Clear  
Wind Chill: 41°   Ceiling: Unl
Heat Index: 46°   Visibility: 10mi
Dew Point: 37°   Wind: 12mph
Humidity: 71%   Direction: 160°SSE
Pressure: 29.77"   Gusts: NA
Location:  39.59°N, 83.12°W
Report Text: KRZT 230514Z AUTO 16010KT 10SM CLR 08/03 A2977 RMK AO2
Loading
Personal Weather Stations






























Interactive Weather Map New forecast layout! Learn more

10-Day Weather Forecast

Advertisements
Track Severe Weather on mobile